createdAt,value
2018-09-26T00:01:31.881Z,9.80
2018-09-26T00:04:03.965Z,9.80
2018-09-26T00:06:31.480Z,9.80
2018-09-26T00:08:58.976Z,9.70
2018-09-26T00:11:26.598Z,9.70
2018-09-26T00:13:54.130Z,9.70
2018-09-26T00:16:21.663Z,9.60
2018-09-26T00:18:49.194Z,9.40
2018-09-26T00:21:16.700Z,9.40
2018-09-26T00:23:44.262Z,9.30
2018-09-26T00:28:46.062Z,9.40
2018-09-26T00:31:13.593Z,9.40
2018-09-26T00:33:41.089Z,9.40
2018-09-26T00:36:08.841Z,9.40
2018-09-26T00:38:36.220Z,9.40
2018-09-26T00:41:03.736Z,9.30
2018-09-26T00:43:31.245Z,9.20
2018-09-26T00:45:58.789Z,9.30
2018-09-26T00:48:26.309Z,9.40
2018-09-26T00:50:53.806Z,9.20
2018-09-26T00:53:21.348Z,9.20
2018-09-26T00:55:48.876Z,9.30
2018-09-26T00:58:16.380Z,9.30
2018-09-26T01:00:43.942Z,9.30
2018-09-26T01:03:11.480Z,9.30
2018-09-26T01:05:39.081Z,9.30
2018-09-26T01:08:06.618Z,9.30
2018-09-26T01:10:34.168Z,9.30
2018-09-26T01:13:01.726Z,9.30
2018-09-26T01:15:29.282Z,9.40
2018-09-26T01:17:56.810Z,9.30
2018-09-26T01:20:24.414Z,9.30
2018-09-26T01:22:51.925Z,9.20
2018-09-26T01:25:19.428Z,9.10
2018-09-26T01:27:46.935Z,9.00
2018-09-26T01:30:14.454Z,9.00
2018-09-26T01:32:41.996Z,9.10
2018-09-26T01:35:09.520Z,9.10
2018-09-26T01:37:37.036Z,9.10
2018-09-26T01:40:04.573Z,9.10
2018-09-26T01:42:32.097Z,9.00
2018-09-26T01:44:59.640Z,8.90
2018-09-26T01:47:27.134Z,9.00
2018-09-26T01:49:54.652Z,9.00
2018-09-26T01:52:22.271Z,9.00
2018-09-26T01:54:49.805Z,8.90
2018-09-26T01:57:17.321Z,8.90
2018-09-26T01:59:44.844Z,8.90
2018-09-26T02:02:12.392Z,8.90
2018-09-26T02:04:39.911Z,8.80
2018-09-26T02:07:07.452Z,8.70
2018-09-26T02:09:34.967Z,8.70
2018-09-26T02:12:02.477Z,8.70
2018-09-26T02:14:30.025Z,8.80
2018-09-26T02:16:57.556Z,8.70
2018-09-26T02:19:25.127Z,8.70
2018-09-26T02:21:52.679Z,8.70
2018-09-26T02:24:20.225Z,8.70
2018-09-26T02:26:47.734Z,8.70
2018-09-26T02:29:15.263Z,8.70
2018-09-26T02:31:42.805Z,8.70
2018-09-26T02:34:10.344Z,8.70
2018-09-26T02:36:37.877Z,8.60
2018-09-26T02:39:06.212Z,8.50
2018-09-26T02:41:33.769Z,8.50
2018-09-26T02:44:01.309Z,8.40
2018-09-26T02:46:28.806Z,8.40
2018-09-26T02:49:02.005Z,8.50
2018-09-26T02:51:29.501Z,8.50
2018-09-26T02:53:57.011Z,8.50
2018-09-26T02:56:24.517Z,8.60
2018-09-26T02:58:52.026Z,8.60
2018-09-26T03:01:19.592Z,8.60
2018-09-26T03:03:47.125Z,8.60
2018-09-26T03:06:14.650Z,8.60
2018-09-26T03:08:42.177Z,8.60
2018-09-26T03:11:09.767Z,8.60
2018-09-26T03:13:37.293Z,8.50
2018-09-26T03:16:04.804Z,8.40
2018-09-26T03:18:32.321Z,8.30
2018-09-26T03:20:59.849Z,8.30
2018-09-26T03:23:27.351Z,8.30
2018-09-26T03:25:54.877Z,8.30
2018-09-26T03:28:22.421Z,8.30
2018-09-26T03:30:49.919Z,8.30
2018-09-26T03:33:17.439Z,8.30
2018-09-26T03:35:44.936Z,8.30
2018-09-26T03:38:12.475Z,8.20
2018-09-26T03:40:40.027Z,8.20
2018-09-26T03:43:07.723Z,8.20
2018-09-26T03:45:35.279Z,8.30
2018-09-26T03:48:02.827Z,8.30
2018-09-26T03:50:30.383Z,8.20
2018-09-26T03:52:57.881Z,8.10
2018-09-26T03:55:25.403Z,8.00
2018-09-26T03:57:52.885Z,8.00
2018-09-26T04:00:20.371Z,7.90
2018-09-26T04:02:47.950Z,7.90
2018-09-26T04:05:15.449Z,7.90
2018-09-26T04:07:42.948Z,7.90
2018-09-26T04:10:10.512Z,7.90
2018-09-26T04:12:38.148Z,7.90
2018-09-26T04:15:05.809Z,7.90
2018-09-26T04:17:33.453Z,7.90
2018-09-26T04:20:00.961Z,8.00
2018-09-26T04:22:28.450Z,8.10
2018-09-26T04:24:55.974Z,8.00
2018-09-26T04:27:23.515Z,7.90
2018-09-26T04:29:51.025Z,7.80
2018-09-26T04:32:18.554Z,7.80
2018-09-26T04:34:46.086Z,7.70
2018-09-26T04:37:13.602Z,7.90
2018-09-26T04:39:41.154Z,7.90
2018-09-26T04:42:08.665Z,7.80
2018-09-26T04:44:36.149Z,7.80
2018-09-26T04:47:03.701Z,7.90
2018-09-26T04:49:31.187Z,8.00
2018-09-26T04:51:58.747Z,8.00
2018-09-26T04:54:26.329Z,8.00
2018-09-26T04:56:53.905Z,8.00
2018-09-26T04:59:21.404Z,7.90
2018-09-26T05:01:49.121Z,7.90
2018-09-26T05:04:16.652Z,7.80
2018-09-26T05:06:44.177Z,7.80
2018-09-26T05:09:11.888Z,7.90
2018-09-26T05:11:39.421Z,7.90
2018-09-26T05:14:07.253Z,8.00
2018-09-26T05:16:34.854Z,7.90
2018-09-26T05:19:02.579Z,7.80
2018-09-26T05:21:30.203Z,7.80
2018-09-26T05:23:58.166Z,7.80
2018-09-26T05:26:25.676Z,7.80
2018-09-26T05:28:53.170Z,7.70
2018-09-26T05:31:20.715Z,7.60
2018-09-26T05:33:48.268Z,7.60
2018-09-26T05:36:15.798Z,7.70
2018-09-26T05:38:43.414Z,7.70
2018-09-26T05:41:10.988Z,7.60
2018-09-26T05:43:38.536Z,7.60
2018-09-26T05:46:06.102Z,7.70
2018-09-26T05:48:34.512Z,7.70
2018-09-26T05:51:02.105Z,7.80
2018-09-26T05:53:29.740Z,7.80
2018-09-26T05:55:57.170Z,7.80
2018-09-26T05:58:24.687Z,7.70
2018-09-26T06:00:52.238Z,7.80
2018-09-26T06:03:19.767Z,7.80
2018-09-26T06:05:47.324Z,7.70
2018-09-26T06:08:14.848Z,7.80
2018-09-26T06:10:42.376Z,7.90
2018-09-26T06:13:10.021Z,8.00
2018-09-26T06:15:37.570Z,8.00
2018-09-26T06:18:05.121Z,8.10
2018-09-26T06:20:32.650Z,8.20
2018-09-26T06:23:00.190Z,8.10
2018-09-26T06:25:27.706Z,8.20
2018-09-26T06:27:55.214Z,8.20
2018-09-26T06:30:22.746Z,8.30
2018-09-26T06:32:50.273Z,8.30
2018-09-26T06:35:17.832Z,8.40
2018-09-26T06:37:45.382Z,8.50
2018-09-26T06:40:12.886Z,8.70
2018-09-26T06:42:54.138Z,8.70
2018-09-26T06:45:21.706Z,8.90
2018-09-26T06:47:49.222Z,9.00
2018-09-26T06:50:22.477Z,9.10
2018-09-26T06:55:42.776Z,9.30
2018-09-26T06:58:10.276Z,9.40
2018-09-26T07:00:37.774Z,9.50
2018-09-26T07:03:05.583Z,9.60
2018-09-26T07:05:33.126Z,9.70
2018-09-26T07:08:00.630Z,9.80
2018-09-26T07:10:28.184Z,9.90
2018-09-26T07:12:55.702Z,9.90
2018-09-26T07:15:23.210Z,10.10
2018-09-26T07:17:51.052Z,10.10
2018-09-26T07:20:18.560Z,10.20
2018-09-26T07:22:46.075Z,10.30
2018-09-26T07:25:13.643Z,10.40
2018-09-26T07:27:41.200Z,10.50
2018-09-26T07:30:08.787Z,10.50
2018-09-26T07:32:36.487Z,10.60
2018-09-26T07:35:04.104Z,10.80
2018-09-26T07:37:31.619Z,10.80
2018-09-26T07:39:59.178Z,10.90
2018-09-26T07:42:26.713Z,11.00
2018-09-26T07:44:54.234Z,11.10
2018-09-26T07:47:21.766Z,11.20
2018-09-26T07:49:49.282Z,11.40
2018-09-26T07:52:16.781Z,11.40
2018-09-26T07:54:44.293Z,11.50
2018-09-26T07:57:11.818Z,11.60
2018-09-26T07:59:39.427Z,11.70
2018-09-26T08:02:06.989Z,11.80
2018-09-26T08:04:34.571Z,11.80
2018-09-26T08:07:02.094Z,11.90
2018-09-26T08:09:29.636Z,12.00
2018-09-26T08:11:57.169Z,12.10
2018-09-26T08:14:24.719Z,12.20
2018-09-26T08:16:52.273Z,12.20
2018-09-26T08:19:19.783Z,12.30
2018-09-26T08:21:47.313Z,12.40
2018-09-26T08:24:14.937Z,12.40
2018-09-26T08:26:42.385Z,12.60
2018-09-26T08:29:09.917Z,12.60
2018-09-26T08:31:37.506Z,12.80
2018-09-26T08:34:05.095Z,12.90
2018-09-26T08:36:32.632Z,13.00
2018-09-26T08:39:00.213Z,13.20
2018-09-26T08:41:27.697Z,13.30
2018-09-26T08:43:55.273Z,13.40
2018-09-26T08:46:22.740Z,13.50
2018-09-26T08:48:50.270Z,13.60
2018-09-26T08:51:17.777Z,13.70
2018-09-26T08:53:45.464Z,13.90
2018-09-26T08:56:12.940Z,14.10
2018-09-26T08:58:40.439Z,14.30
2018-09-26T09:01:13.716Z,14.50
2018-09-26T09:03:41.236Z,14.60
2018-09-26T09:06:08.831Z,14.80
2018-09-26T09:08:36.488Z,14.90
2018-09-26T09:11:04.051Z,15.10
2018-09-26T09:13:31.585Z,15.20
2018-09-26T09:15:59.116Z,15.40
2018-09-26T09:18:26.624Z,15.60
2018-09-26T09:20:54.147Z,15.70
2018-09-26T09:23:21.704Z,16.00
2018-09-26T09:25:49.217Z,16.20
2018-09-26T09:28:16.769Z,16.30
2018-09-26T09:30:44.306Z,16.40
2018-09-26T09:33:11.788Z,16.50
2018-09-26T09:35:39.298Z,16.60
2018-09-26T09:38:06.874Z,16.80
2018-09-26T09:40:34.367Z,17.00
2018-09-26T09:43:01.864Z,17.00
2018-09-26T09:45:29.406Z,17.00
2018-09-26T09:47:56.959Z,17.20
2018-09-26T09:50:24.587Z,17.20
2018-09-26T09:52:52.068Z,17.30
2018-09-26T09:55:19.605Z,17.50
2018-09-26T09:57:47.089Z,17.70
2018-09-26T10:00:14.650Z,17.90
2018-09-26T10:02:42.195Z,18.10
2018-09-26T10:05:09.906Z,18.10
2018-09-26T10:07:37.466Z,18.10
2018-09-26T10:10:05.030Z,18.40
2018-09-26T10:12:32.530Z,18.50
2018-09-26T10:15:00.074Z,18.60
2018-09-26T10:17:27.633Z,18.70
2018-09-26T10:19:55.154Z,19.00
2018-09-26T10:22:23.544Z,19.20
2018-09-26T10:24:51.084Z,19.30
2018-09-26T10:27:18.600Z,19.30
2018-09-26T10:29:46.157Z,19.50
2018-09-26T10:32:13.714Z,19.70
2018-09-26T10:34:41.238Z,19.90
2018-09-26T10:37:08.781Z,20.20
2018-09-26T10:39:36.297Z,20.40
2018-09-26T10:42:03.966Z,20.80
2018-09-26T10:44:31.525Z,20.80
2018-09-26T10:46:59.008Z,20.70
2018-09-26T10:49:26.523Z,20.90
2018-09-26T10:51:54.038Z,21.00
2018-09-26T10:54:21.561Z,21.30
2018-09-26T10:56:49.073Z,21.40
2018-09-26T10:59:16.638Z,21.60
2018-09-26T11:01:44.165Z,21.90
2018-09-26T11:04:11.742Z,21.70
2018-09-26T11:06:39.368Z,21.80
2018-09-26T11:09:07.949Z,21.70
2018-09-26T11:11:35.489Z,21.80
2018-09-26T11:14:03.103Z,21.70
2018-09-26T11:16:30.624Z,21.80
2018-09-26T11:18:58.183Z,21.90
2018-09-26T11:21:25.806Z,22.20
2018-09-26T11:23:53.259Z,22.40
2018-09-26T11:26:20.897Z,22.30
2018-09-26T11:28:48.299Z,22.60
2018-09-26T11:31:15.819Z,23.00
2018-09-26T11:33:43.424Z,23.10
2018-09-26T11:36:10.997Z,23.00
2018-09-26T11:38:38.529Z,23.00
2018-09-26T11:41:06.075Z,23.20
2018-09-26T11:43:33.572Z,23.40
2018-09-26T11:46:01.113Z,23.60
2018-09-26T11:48:28.621Z,23.60
2018-09-26T11:50:56.211Z,23.90
2018-09-26T11:53:23.746Z,24.20
2018-09-26T11:55:51.283Z,24.40
2018-09-26T11:58:18.850Z,24.60
2018-09-26T12:00:46.379Z,24.50
2018-09-26T12:03:13.881Z,24.60
2018-09-26T12:05:41.463Z,25.00
2018-09-26T12:08:09.047Z,25.10
2018-09-26T12:10:36.585Z,25.30
2018-09-26T12:13:04.195Z,25.20
2018-09-26T12:15:31.738Z,25.50
2018-09-26T12:17:59.241Z,25.60
2018-09-26T12:20:26.775Z,25.70
2018-09-26T12:22:54.316Z,25.60
2018-09-26T12:25:21.920Z,25.70
2018-09-26T12:27:49.475Z,25.90
2018-09-26T12:30:16.990Z,26.10
2018-09-26T12:32:44.506Z,26.20
2018-09-26T12:35:12.037Z,26.00
2018-09-26T12:37:39.586Z,26.10
2018-09-26T12:40:07.888Z,26.40
2018-09-26T12:42:35.435Z,26.60
2018-09-26T12:45:03.054Z,26.50
2018-09-26T12:47:30.632Z,27.20
2018-09-26T12:49:58.169Z,27.30
2018-09-26T12:52:25.851Z,27.60
2018-09-26T12:54:53.313Z,27.50
2018-09-26T12:57:20.853Z,27.50
2018-09-26T12:59:48.390Z,27.90
2018-09-26T13:02:16.041Z,28.10
2018-09-26T13:04:43.633Z,28.50
2018-09-26T13:07:11.192Z,28.80
2018-09-26T13:09:38.701Z,28.90
2018-09-26T13:12:06.305Z,29.00
2018-09-26T13:14:33.857Z,29.10
2018-09-26T13:17:01.743Z,29.20
2018-09-26T13:19:29.300Z,29.50
2018-09-26T13:21:56.791Z,29.20
2018-09-26T13:24:24.448Z,29.00
2018-09-26T13:26:51.926Z,29.10
2018-09-26T13:29:19.429Z,29.10
2018-09-26T13:31:46.910Z,29.70
2018-09-26T13:34:14.483Z,29.90
2018-09-26T13:36:42.006Z,30.00
2018-09-26T13:39:09.618Z,30.20
2018-09-26T13:41:37.129Z,30.00
2018-09-26T13:44:04.844Z,30.00
2018-09-26T13:46:32.356Z,29.80
2018-09-26T13:48:59.856Z,30.20
2018-09-26T13:51:27.651Z,30.30
2018-09-26T13:53:55.213Z,30.70
2018-09-26T13:56:22.807Z,31.30
2018-09-26T13:58:50.388Z,31.60
2018-09-26T14:01:17.973Z,31.40
2018-09-26T14:03:45.483Z,31.40
2018-09-26T14:06:13.013Z,31.10
2018-09-26T14:08:40.604Z,31.00
2018-09-26T14:11:08.090Z,30.70
2018-09-26T14:13:35.677Z,30.90
2018-09-26T14:16:03.254Z,30.80
2018-09-26T14:18:30.839Z,31.30
2018-09-26T14:20:58.356Z,31.10
2018-09-26T14:23:25.938Z,31.80
2018-09-26T14:25:53.413Z,31.50
2018-09-26T14:28:20.925Z,31.40
2018-09-26T14:30:48.585Z,31.60
2018-09-26T14:33:16.074Z,31.60
2018-09-26T14:35:43.667Z,31.80
2018-09-26T14:38:11.205Z,32.20
2018-09-26T14:40:38.769Z,32.20
2018-09-26T14:43:06.349Z,32.90
2018-09-26T14:45:33.959Z,33.10
2018-09-26T14:48:01.492Z,32.70
2018-09-26T14:50:29.001Z,32.30
2018-09-26T14:52:56.640Z,32.00
2018-09-26T14:55:24.207Z,31.80
2018-09-26T14:57:51.672Z,32.00
2018-09-26T15:00:19.204Z,32.20
2018-09-26T15:02:46.765Z,32.20
2018-09-26T15:05:14.293Z,32.30
2018-09-26T15:07:41.837Z,32.30
2018-09-26T15:10:09.460Z,32.10
2018-09-26T15:12:36.935Z,32.00
2018-09-26T15:15:04.522Z,32.30
2018-09-26T15:17:32.134Z,32.40
2018-09-26T15:19:59.701Z,32.40
2018-09-26T15:22:27.308Z,33.00
2018-09-26T15:24:54.795Z,33.10
2018-09-26T15:27:22.346Z,33.40
2018-09-26T15:29:49.864Z,33.30
2018-09-26T15:32:17.404Z,33.20
2018-09-26T15:34:44.909Z,33.30
2018-09-26T15:37:12.495Z,33.10
2018-09-26T15:39:40.128Z,32.80
2018-09-26T15:42:07.680Z,32.70
2018-09-26T15:44:35.207Z,33.00
2018-09-26T15:47:02.882Z,33.10
2018-09-26T15:49:30.386Z,33.10
2018-09-26T15:51:57.955Z,33.10
2018-09-26T15:54:25.613Z,32.80
2018-09-26T15:56:53.175Z,32.70
2018-09-26T15:59:20.726Z,32.60
2018-09-26T16:01:48.256Z,32.40
2018-09-26T16:04:15.844Z,32.40
2018-09-26T16:06:43.487Z,32.40
2018-09-26T16:09:11.031Z,32.00
2018-09-26T16:11:38.539Z,32.20
2018-09-26T16:14:06.111Z,32.30
2018-09-26T16:16:33.596Z,32.40
2018-09-26T16:19:01.368Z,32.30
2018-09-26T16:21:28.864Z,32.50
2018-09-26T16:23:56.453Z,32.90
2018-09-26T16:26:24.288Z,33.10
2018-09-26T16:28:51.863Z,33.20
2018-09-26T16:31:19.442Z,32.50
2018-09-26T16:33:46.956Z,32.10
2018-09-26T16:36:14.514Z,32.10
2018-09-26T16:38:42.039Z,32.00
2018-09-26T16:41:09.553Z,32.10
2018-09-26T16:43:37.205Z,32.20
2018-09-26T16:46:04.870Z,32.20
2018-09-26T16:48:32.400Z,32.00
2018-09-26T16:50:59.967Z,32.00
2018-09-26T16:53:27.500Z,32.00
2018-09-26T16:55:55.144Z,31.80
2018-09-26T16:58:22.723Z,31.70
2018-09-26T17:00:50.212Z,31.60
2018-09-26T17:03:17.725Z,31.20
2018-09-26T17:05:45.223Z,30.30
2018-09-26T17:08:12.817Z,29.00
2018-09-26T17:10:40.372Z,27.90
2018-09-26T17:13:07.910Z,27.00
2018-09-26T17:15:35.467Z,26.10
2018-09-26T17:18:02.981Z,25.10
2018-09-26T17:20:30.567Z,24.60
2018-09-26T17:22:58.116Z,24.00
2018-09-26T17:25:25.641Z,23.90
2018-09-26T17:27:53.163Z,23.50
2018-09-26T17:30:20.800Z,23.00
2018-09-26T17:32:48.597Z,22.70
2018-09-26T17:35:16.163Z,22.30
2018-09-26T17:37:43.914Z,21.70
2018-09-26T17:40:11.741Z,21.30
2018-09-26T17:42:39.342Z,21.00
2018-09-26T17:45:07.901Z,20.70
2018-09-26T17:47:35.621Z,20.40
2018-09-26T17:50:03.311Z,20.30
2018-09-26T17:52:30.937Z,20.20
2018-09-26T17:54:58.673Z,19.90
2018-09-26T17:57:26.599Z,19.70
2018-09-26T17:59:54.185Z,19.40
2018-09-26T18:02:21.895Z,19.20
2018-09-26T18:04:49.435Z,18.90
2018-09-26T18:07:17.004Z,18.80
2018-09-26T18:09:44.541Z,18.80
2018-09-26T18:12:12.049Z,18.60
2018-09-26T18:14:39.733Z,18.40
2018-09-26T18:17:07.141Z,18.30
2018-09-26T18:19:34.660Z,18.20
2018-09-26T18:22:02.206Z,18.00
2018-09-26T18:24:29.733Z,17.90
2018-09-26T18:26:57.264Z,17.80
2018-09-26T18:29:24.787Z,17.80
2018-09-26T18:31:52.320Z,17.70
2018-09-26T18:34:19.826Z,17.50
2018-09-26T18:36:47.373Z,17.40
2018-09-26T18:39:15.088Z,17.40
2018-09-26T18:41:42.522Z,17.40
2018-09-26T18:44:10.041Z,17.10
2018-09-26T18:46:37.517Z,16.90
2018-09-26T18:49:05.070Z,16.90
2018-09-26T18:51:32.648Z,16.60
2018-09-26T18:54:00.198Z,16.60
2018-09-26T18:56:27.711Z,16.50
2018-09-26T18:58:55.402Z,16.40
2018-09-26T19:01:22.942Z,16.30
2018-09-26T19:03:50.446Z,16.40
2018-09-26T19:06:18.046Z,16.20
2018-09-26T19:08:45.582Z,16.10
2018-09-26T19:11:13.526Z,16.10
2018-09-26T19:13:41.205Z,16.00
2018-09-26T19:16:08.801Z,15.90
2018-09-26T19:18:36.314Z,15.80
2018-09-26T19:21:05.005Z,15.70
2018-09-26T19:23:32.638Z,15.60
2018-09-26T19:26:00.198Z,15.60
2018-09-26T19:28:27.740Z,15.50
2018-09-26T19:30:55.454Z,15.40
2018-09-26T19:33:23.041Z,15.40
2018-09-26T19:35:50.614Z,15.30
2018-09-26T19:38:18.146Z,15.20
2018-09-26T19:40:45.645Z,15.10
2018-09-26T19:43:13.206Z,15.10
2018-09-26T19:45:41.130Z,15.10
2018-09-26T19:48:09.103Z,15.00
2018-09-26T19:50:36.760Z,15.00
2018-09-26T19:53:04.745Z,15.00
2018-09-26T19:55:32.278Z,14.80
2018-09-26T19:57:59.924Z,14.80
2018-09-26T20:00:27.545Z,14.90
2018-09-26T20:02:55.168Z,14.80
2018-09-26T20:05:22.766Z,14.80
2018-09-26T20:07:50.343Z,14.60
2018-09-26T20:10:17.888Z,14.50
2018-09-26T20:12:45.508Z,14.40
2018-09-26T20:15:13.196Z,14.40
2018-09-26T20:17:40.728Z,14.30
2018-09-26T20:20:08.454Z,14.30
2018-09-26T20:22:36.055Z,14.30
2018-09-26T20:25:03.840Z,14.20
2018-09-26T20:27:31.437Z,14.10
2018-09-26T20:29:59.072Z,14.10
2018-09-26T20:32:26.635Z,14.00
2018-09-26T20:34:54.236Z,14.00
2018-09-26T20:37:21.793Z,14.00
2018-09-26T20:39:49.326Z,14.00
2018-09-26T20:42:16.860Z,14.00
2018-09-26T20:44:44.370Z,13.80
2018-09-26T20:47:12.150Z,13.90
2018-09-26T20:49:39.720Z,13.90
2018-09-26T20:52:07.227Z,13.80
2018-09-26T20:54:34.774Z,13.70
2018-09-26T20:57:02.332Z,13.60
2018-09-26T20:59:29.857Z,13.50
2018-09-26T21:01:57.380Z,13.40
2018-09-26T21:04:25.002Z,13.30
2018-09-26T21:06:52.541Z,13.30
2018-09-26T21:09:20.063Z,13.30
2018-09-26T21:11:47.651Z,13.40
2018-09-26T21:14:15.169Z,13.30
2018-09-26T21:16:42.757Z,13.20
2018-09-26T21:19:10.321Z,13.20
2018-09-26T21:21:37.835Z,13.20
2018-09-26T21:24:05.369Z,13.20
2018-09-26T21:26:32.923Z,13.10
2018-09-26T21:29:00.411Z,13.10
2018-09-26T21:31:27.982Z,13.20
2018-09-26T21:33:55.558Z,13.10
2018-09-26T21:36:23.114Z,13.00
2018-09-26T21:38:50.663Z,13.10
2018-09-26T21:41:18.219Z,13.00
2018-09-26T21:43:45.776Z,12.90
2018-09-26T21:46:13.327Z,12.80
2018-09-26T21:48:40.835Z,12.80
2018-09-26T21:51:08.332Z,12.70
2018-09-26T21:53:35.857Z,12.70
2018-09-26T21:56:03.468Z,12.70
2018-09-26T21:58:30.958Z,12.70
2018-09-26T22:01:02.922Z,12.60
2018-09-26T22:03:30.865Z,12.70
